Time;durP1;ratioP1;P1;durP2;ratioP2;P2;SDS_P1;SDS_P2;PMS_P1;PMS_P2;Temp;Humidity;BMP_temperature;BMP_pressure;BME280_temperature;BME280_humidity;BME280_pressure;Samples;Min_cycle;Max_cycle;Signal;HPM_P1;HPM_P2
2022/08/16 00:02:05;;;;;;;10.68;4.95;;;;;;;22.88;49.05;100795.19;4844632;29;20029;-60
2022/08/16 00:04:31;;;;;;;10.52;4.72;;;;;;;22.57;50.40;100793.81;4844615;29;20040;-60
2022/08/16 00:06:58;;;;;;;9.88;4.70;;;;;;;22.59;48.90;100788.88;4844563;29;20032;-60
2022/08/16 00:09:25;;;;;;;10.27;4.30;;;;;;;22.66;48.98;100790.19;4844644;29;20388;-61
2022/08/16 00:11:51;;;;;;;12.13;4.72;;;;;;;22.59;49.48;100792.44;4844692;29;20076;-61
2022/08/16 00:14:22;;;;;;;9.40;4.43;;;;;;;22.33;49.63;100783.69;4844984;29;20034;-60
2022/08/16 00:16:49;;;;;;;14.20;5.18;;;;;;;22.58;49.16;100782.63;4844893;29;20396;-61
2022/08/16 00:19:22;;;;;;;9.88;4.78;;;;;;;22.38;49.50;100775.47;4844912;29;20034;-61
2022/08/16 00:21:49;;;;;;;10.57;4.75;;;;;;;22.50;49.58;100774.25;4844364;29;20030;-60
2022/08/16 00:24:16;;;;;;;10.73;4.50;;;;;;;22.51;49.27;100773.97;4844071;29;20034;-61
2022/08/16 00:26:43;;;;;;;8.57;4.38;;;;;;;22.54;48.37;100781.59;4844419;29;20498;-62
2022/08/16 00:29:12;;;;;;;13.05;5.13;;;;;;;22.49;49.44;100772.66;4844048;29;20034;-61
2022/08/16 00:31:38;;;;;;;23.25;6.97;;;;;;;22.27;50.16;100768.47;4844124;29;20118;-61
2022/08/16 00:34:05;;;;;;;14.55;5.07;;;;;;;22.02;50.49;100776.81;4843981;29;20117;-61
2022/08/16 00:36:31;;;;;;;14.98;5.80;;;;;;;21.95;51.89;100773.59;4844634;29;20065;-58
2022/08/16 00:38:57;;;;;;;11.98;5.63;;;;;;;22.04;52.04;100772.72;4843550;29;20101;-58
2022/08/16 00:41:25;;;;;;;18.77;5.97;;;;;;;22.28;52.03;100766.56;4844520;29;20490;-58
2022/08/16 00:43:52;;;;;;;14.38;5.20;;;;;;;22.00;52.39;100777.09;4844021;29;20038;-57
2022/08/16 00:46:26;;;;;;;15.70;6.25;;;;;;;22.25;52.20;100765.19;4843828;29;20115;-57
2022/08/16 00:48:53;;;;;;;;;;;;;;;22.05;52.60;100766.16;4844671;29;20033;-56
2022/08/16 00:51:22;;;;;;;18.20;5.80;;;;;;;22.01;51.86;100773.25;4843695;29;20008;-56
2022/08/16 00:53:49;;;;;;;15.70;6.40;;;;;;;21.86;51.88;100768.72;4843652;29;20057;-55
2022/08/16 00:56:21;;;;;;;23.02;6.53;;;;;;;21.72;52.55;100778.66;4844184;29;20030;-56
2022/08/16 00:58:48;;;;;;;14.57;5.40;;;;;;;21.59;53.13;100777.34;4844084;29;20033;-56
2022/08/16 01:01:16;;;;;;;14.43;6.03;;;;;;;21.31;53.79;100778.03;4843601;29;20395;-56
2022/08/16 01:03:47;;;;;;;17.77;6.47;;;;;;;21.09;54.64;100776.44;4843353;29;20483;-57
2022/08/16 01:06:14;;;;;;;18.13;6.28;;;;;;;21.19;55.05;100764.72;4843408;29;20061;-56
2022/08/16 01:08:45;;;;;;;18.02;6.50;;;;;;;20.75;55.66;100773.56;4843619;29;20120;-57
2022/08/16 01:11:12;;;;;;;17.00;7.03;;;;;;;20.87;55.40;100781.41;4842602;29;20520;-57
2022/08/16 01:13:40;;;;;;;17.30;6.07;;;;;;;21.03;55.30;100769.38;4843382;29;20034;-57
2022/08/16 01:16:16;;;;;;;21.95;6.63;;;;;;;20.70;56.26;100767.31;4843324;29;20033;-57
2022/08/16 01:18:52;;;;;;;20.42;6.93;;;;;;;20.52;56.52;100766.78;4843328;29;20030;-57
2022/08/16 01:21:25;;;;;;;18.17;6.65;;;;;;;20.47;56.41;100761.34;4843946;29;20022;-57
2022/08/16 01:24:10;;;;;;;16.42;6.55;;;;;;;20.54;56.29;100769.22;4843276;29;20037;-57
2022/08/16 01:26:39;;;;;;;19.92;6.85;;;;;;;20.33;57.79;100773.03;4843187;29;20038;-57
2022/08/16 01:29:11;;;;;;;18.92;6.25;;;;;;;20.11;58.54;100762.44;4843279;29;20034;-57
2022/08/16 01:31:37;;;;;;;21.13;6.55;;;;;;;20.07;58.78;100767.59;4843181;29;20026;-57
2022/08/16 01:34:04;;;;;;;18.73;6.55;;;;;;;20.23;57.87;100769.22;4842974;29;20094;-57
2022/08/16 01:36:32;;;;;;;19.95;6.53;;;;;;;20.13;58.12;100762.97;4843009;29;20065;-57
2022/08/16 01:38:58;;;;;;;20.55;7.00;;;;;;;20.05;58.71;100761.63;4842834;29;20025;-57
2022/08/16 01:41:29;;;;;;;18.70;6.57;;;;;;;19.76;59.14;100769.44;4842728;29;20063;-56
2022/08/16 01:43:56;;;;;;;19.67;6.50;;;;;;;19.78;59.00;100764.59;4842770;29;20037;-57
2022/08/16 01:46:28;;;;;;;16.77;6.68;;;;;;;19.97;58.47;100762.97;4842584;29;20112;-57
2022/08/16 01:49:20;;;;;;;18.10;6.35;;;;;;;19.60;59.84;100762.34;4842744;29;20041;-57
2022/08/16 01:51:55;;;;;;;20.08;7.05;;;;;;;19.37;60.38;100763.59;4842563;29;20041;-56
2022/08/16 01:54:22;;;;;;;23.27;7.30;;;;;;;19.45;60.32;100754.97;4842517;29;20381;-56
2022/08/16 01:56:48;;;;;;;26.83;7.53;;;;;;;19.42;60.75;100760.91;4843212;29;20033;-56
2022/08/16 01:59:15;;;;;;;31.10;7.72;;;;;;;19.35;60.54;100754.94;4842469;29;20030;-56
2022/08/16 02:01:42;;;;;;;24.35;7.40;;;;;;;19.56;60.33;100756.63;4842229;29;20058;-56
2022/08/16 02:04:08;;;;;;;25.13;6.95;;;;;;;19.59;60.18;100756.09;4842301;29;20134;-56
2022/08/16 02:06:35;;;;;;;18.98;6.45;;;;;;;19.40;60.25;100755.75;4842434;29;20037;-57
2022/08/16 02:09:02;;;;;;;24.02;7.50;;;;;;;19.23;60.35;100755.16;4842408;29;20538;-57
2022/08/16 02:11:28;;;;;;;23.65;8.23;;;;;;;19.24;60.60;100756.78;4842296;29;20030;-56
2022/08/16 02:13:54;;;;;;;21.20;7.05;;;;;;;19.24;60.36;100760.31;4842808;29;20445;-57
2022/08/16 02:16:21;;;;;;;25.00;7.80;;;;;;;18.84;61.75;100763.66;4842426;29;20029;-56
2022/08/16 02:18:47;;;;;;;23.15;7.90;;;;;;;18.92;61.20;100774.00;4842548;29;20038;-56
2022/08/16 02:21:14;;;;;;;23.63;7.53;;;;;;;18.77;61.85;100759.53;4825651;29;20420;-56
2022/08/16 02:23:41;;;;;;;29.00;7.07;;;;;;;18.94;61.68;100771.84;4842224;29;20034;-56
2022/08/16 02:26:07;;;;;;;21.50;7.32;;;;;;;18.59;63.06;100766.97;4842617;29;20022;-56
2022/08/16 02:28:34;;;;;;;24.60;7.63;;;;;;;18.57;63.06;100768.34;4842281;29;20030;-56
2022/08/16 02:31:05;;;;;;;27.27;7.95;;;;;;;18.52;63.48;100774.53;4842404;29;20383;-56
2022/08/16 02:33:32;;;;;;;25.73;7.95;;;;;;;18.69;62.44;100775.22;4841873;29;20106;-56
2022/08/16 02:35:58;;;;;;;20.25;7.28;;;;;;;18.59;63.09;100769.69;4826312;29;20397;-56
2022/08/16 02:38:26;;;;;;;28.10;7.82;;;;;;;18.42;63.33;100764.44;4842261;29;20026;-56
2022/08/16 02:40:56;;;;;;;25.92;7.47;;;;;;;18.37;63.53;100771.69;4842314;29;20113;-56
2022/08/16 02:43:28;;;;;;;27.75;8.13;;;;;;;18.21;64.30;100770.75;4842525;29;20041;-56
2022/08/16 02:45:56;;;;;;;27.45;8.15;;;;;;;18.29;64.18;100775.72;4842236;29;20050;-56
2022/08/16 02:48:23;;;;;;;52.58;9.50;;;;;;;18.08;64.45;100772.00;4842461;29;20037;-56
2022/08/16 02:50:50;;;;;;;25.65;7.88;;;;;;;17.79;65.98;100770.66;4842000;29;20034;-56
2022/08/16 02:53:16;;;;;;;28.88;8.48;;;;;;;17.68;66.75;100775.13;4842007;29;20042;-56
2022/08/16 02:55:43;;;;;;;26.42;9.15;;;;;;;17.81;66.37;100774.72;4841987;29;20113;-56
2022/08/16 02:58:10;;;;;;;32.25;8.85;;;;;;;17.47;67.58;100779.47;4842340;29;20105;-56
2022/08/16 03:00:37;;;;;;;27.15;8.43;;;;;;;17.54;67.15;100773.88;4841908;29;20040;-56
2022/08/16 03:03:04;;;;;;;31.15;8.55;;;;;;;17.31;66.98;100759.53;4841913;29;20040;-55
2022/08/16 03:05:30;;;;;;;26.17;8.38;;;;;;;17.41;66.76;100764.25;4841746;29;20037;-55
2022/08/16 03:07:57;;;;;;;33.20;9.27;;;;;;;17.33;67.47;100772.84;4841758;29;20118;-56
2022/08/16 03:10:23;;;;;;;26.38;9.05;;;;;;;17.33;67.79;100772.84;4841858;29;20155;-56
2022/08/16 03:12:49;;;;;;;29.27;8.23;;;;;;;17.37;67.48;100774.75;4841662;29;20033;-56
2022/08/16 03:15:17;;;;;;;31.67;8.68;;;;;;;17.14;68.33;100770.41;4841605;29;20113;-56
2022/08/16 03:17:45;;;;;;;32.67;9.45;;;;;;;17.31;67.54;100767.66;4841890;29;20440;-54
2022/08/16 03:20:14;;;;;;;23.65;8.40;;;;;;;17.25;67.70;100771.38;4842316;29;20201;-56
2022/08/16 03:22:41;;;;;;;31.05;9.13;;;;;;;17.18;68.45;100765.34;4841660;29;20515;-56
2022/08/16 03:25:11;;;;;;;29.80;8.43;;;;;;;17.14;69.08;100772.31;4841635;29;20038;-57
2022/08/16 03:27:39;;;;;;;29.17;8.55;;;;;;;17.03;69.47;100765.94;4841813;29;20026;-56
2022/08/16 03:30:09;;;;;;;31.92;9.20;;;;;;;16.92;70.22;100775.00;4841750;29;20033;-56
2022/08/16 03:32:35;;;;;;;31.92;9.25;;;;;;;16.92;70.38;100771.47;4841669;29;20048;-56
2022/08/16 03:35:01;;;;;;;23.58;8.95;;;;;;;16.85;70.41;100777.06;4844341;29;20153;-56
2022/08/16 03:37:27;;;;;;;31.52;9.50;;;;;;;16.82;70.50;100774.84;4845595;29;20034;-56
2022/08/16 03:39:54;;;;;;;28.27;9.10;;;;;;;16.87;70.44;100778.44;4844757;29;20026;-57
2022/08/16 03:42:21;;;;;;;32.55;9.95;;;;;;;16.90;70.13;100777.13;4844781;29;20041;-56
2022/08/16 03:44:47;;;;;;;32.80;10.25;;;;;;;16.84;70.28;100778.94;4845062;29;20055;-56
2022/08/16 03:47:14;;;;;;;30.13;8.85;;;;;;;16.83;70.36;100779.22;4844629;29;20542;-56
2022/08/16 03:49:40;;;;;;;27.50;9.43;;;;;;;16.69;70.94;100783.28;4844902;29;20022;-54
2022/08/16 03:52:07;;;;;;;31.00;9.05;;;;;;;16.73;70.87;100774.47;4844662;29;20053;-54
2022/08/16 03:54:34;;;;;;;29.13;8.70;;;;;;;16.76;70.59;100784.75;4844492;29;20034;-55
2022/08/16 03:57:01;;;;;;;34.63;9.50;;;;;;;16.75;70.79;100785.84;4844606;29;20030;-56
2022/08/16 03:59:27;;;;;;;27.98;8.13;;;;;;;16.72;71.60;100780.94;4844690;29;20441;-56
2022/08/16 04:01:54;;;;;;;28.35;9.50;;;;;;;16.68;71.82;100781.66;4844482;29;20037;-56
2022/08/16 04:04:20;;;;;;;34.20;9.73;;;;;;;16.54;72.14;100789.25;4844462;29;20042;-56
2022/08/16 04:06:46;;;;;;;27.15;8.50;;;;;;;16.71;71.43;100786.56;4844286;29;20026;-55
2022/08/16 04:09:12;;;;;;;28.00;8.98;;;;;;;16.57;71.58;100781.50;4844468;29;20487;-56
2022/08/16 04:11:39;;;;;;;24.45;9.02;;;;;;;16.46;72.32;100778.88;4844646;29;20040;-55
2022/08/16 04:14:05;;;;;;;25.90;9.55;;;;;;;16.46;71.96;100777.00;4844384;29;20029;-56
2022/08/16 04:16:31;;;;;;;27.88;9.35;;;;;;;16.43;72.52;100785.59;4844373;29;20037;-56
2022/08/16 04:18:57;;;;;;;24.90;9.60;;;;;;;16.56;71.96;100789.84;4844293;29;20087;-57
2022/08/16 04:21:24;;;;;;;29.92;9.20;;;;;;;16.46;72.44;100785.09;4844306;29;20105;-56
2022/08/16 04:23:50;;;;;;;28.17;8.38;;;;;;;16.52;72.26;100792.22;4844280;29;20033;-57
2022/08/16 04:26:16;;;;;;;33.47;9.48;;;;;;;16.43;72.33;100792.88;4844289;29;20026;-57
2022/08/16 04:28:43;;;;;;;28.17;9.68;;;;;;;16.74;71.08;100792.31;4844251;29;20506;-57
2022/08/16 04:31:10;;;;;;;35.20;8.98;;;;;;;16.71;71.31;100789.28;4843936;29;20046;-57
2022/08/16 04:33:36;;;;;;;27.65;8.32;;;;;;;16.59;71.57;100787.47;4844199;29;20041;-57
2022/08/16 04:36:03;;;;;;;33.95;9.10;;;;;;;16.64;71.71;100792.94;4844285;29;20034;-57
2022/08/16 04:38:29;;;;;;;28.42;9.40;;;;;;;16.54;72.33;100797.38;4844112;29;20042;-57
2022/08/16 04:40:55;;;;;;;34.85;9.20;;;;;;;16.73;71.48;100789.88;4844212;29;20033;-57
2022/08/16 04:43:22;;;;;;;30.73;9.40;;;;;;;16.71;71.82;100795.53;4843835;29;20034;-57
2022/08/16 04:45:48;;;;;;;31.50;9.40;;;;;;;16.56;72.54;100795.25;4843637;29;20079;-56
2022/08/16 04:48:14;;;;;;;31.85;9.48;;;;;;;16.66;72.17;100794.56;4843843;29;20090;-56
2022/08/16 04:50:41;;;;;;;33.88;9.90;;;;;;;16.77;71.86;100799.94;4843778;29;20169;-57
2022/08/16 04:53:07;;;;;;;28.33;8.50;;;;;;;16.79;71.48;100794.28;4844050;29;20395;-56
2022/08/16 04:55:34;;;;;;;28.98;9.43;;;;;;;16.80;71.80;100794.03;4843642;29;20064;-56
2022/08/16 04:58:01;;;;;;;26.02;8.70;;;;;;;16.91;71.27;100792.28;4843628;29;20506;-56
2022/08/16 05:00:35;;;;;;;35.70;9.18;;;;;;;16.88;71.66;100799.03;4843600;29;20038;-57
2022/08/16 05:03:05;;;;;;;29.17;10.40;;;;;;;16.72;72.17;100793.66;4843495;29;20076;-57
2022/08/16 05:05:32;;;;;;;24.60;8.27;;;;;;;16.82;71.89;100800.03;4843500;29;20040;-57
2022/08/16 05:07:59;;;;;;;32.55;9.68;;;;;;;16.77;72.11;100791.03;4843604;29;20445;-57
2022/08/16 05:10:26;;;;;;;28.30;9.15;;;;;;;16.80;71.71;100795.91;4827012;29;20445;-58
2022/08/16 05:12:52;;;;;;;26.10;8.75;;;;;;;16.79;72.04;100795.09;4843829;29;20522;-57
2022/08/16 05:15:18;;;;;;;32.58;9.90;;;;;;;16.85;71.63;100798.69;4843531;29;20029;-57
2022/08/16 05:17:44;;;;;;;32.10;9.43;;;;;;;16.81;71.67;100792.94;4844192;29;20441;-57
2022/08/16 05:20:11;;;;;;;26.95;8.70;;;;;;;16.81;71.64;100789.44;4843429;29;20102;-56
2022/08/16 05:22:38;;;;;;;29.30;8.32;;;;;;;16.63;71.98;100804.81;4843291;29;20450;-57
2022/08/16 05:25:06;;;;;;;26.98;8.52;;;;;;;16.63;72.36;100801.31;4843195;29;20034;-56
2022/08/16 05:27:32;;;;;;;31.45;8.52;;;;;;;16.42;73.19;100810.16;4843404;29;20034;-57
2022/08/16 05:29:59;;;;;;;29.42;8.40;;;;;;;16.46;72.74;100808.59;4843436;29;20037;-57
2022/08/16 05:32:25;;;;;;;25.98;9.10;;;;;;;16.53;72.61;100811.94;4843108;29;20372;-56
2022/08/16 05:34:51;;;;;;;27.05;8.27;;;;;;;16.48;72.77;100803.75;4842927;29;20037;-57
2022/08/16 05:37:17;;;;;;;29.75;8.88;;;;;;;16.46;72.70;100817.53;4842922;29;20054;-57
2022/08/16 05:39:44;;;;;;;26.98;8.13;;;;;;;16.40;72.96;100815.00;4842808;29;20033;-57
2022/08/16 05:42:10;;;;;;;28.73;8.73;;;;;;;16.35;73.20;100813.84;4842819;29;20059;-57
2022/08/16 05:44:36;;;;;;;30.23;9.45;;;;;;;16.45;72.78;100812.38;4842912;29;20030;-57
2022/08/16 05:47:02;;;;;;;29.02;8.80;;;;;;;16.33;73.22;100813.28;4842535;29;20058;-57
2022/08/16 05:49:30;;;;;;;35.15;9.60;;;;;;;16.42;72.89;100810.97;4842648;29;20065;-57
2022/08/16 05:51:58;;;;;;;33.58;8.82;;;;;;;16.44;72.50;100802.63;4842678;29;20034;-57
2022/08/16 05:54:26;;;;;;;33.42;9.70;;;;;;;16.52;72.49;100805.72;4843593;29;20034;-57
2022/08/16 05:56:55;;;;;;;38.88;9.40;;;;;;;16.33;72.83;100802.47;4842019;29;20030;-57
2022/08/16 05:59:22;;;;;;;38.67;9.18;;;;;;;16.36;72.55;100806.56;4842422;29;20034;-56
2022/08/16 06:01:50;;;;;;;26.50;8.15;;;;;;;16.41;72.54;100798.53;4842389;29;20421;-57
2022/08/16 06:04:18;;;;;;;32.70;8.43;;;;;;;16.26;72.86;100800.97;4842463;29;20037;-56
2022/08/16 06:06:45;;;;;;;32.67;8.85;;;;;;;16.23;72.99;100798.78;4842664;29;20065;-56
2022/08/16 06:09:13;;;;;;;28.27;8.63;;;;;;;16.06;73.64;100807.69;4842289;29;20050;-56
2022/08/16 06:11:39;;;;;;;31.15;8.65;;;;;;;16.17;73.06;100807.84;4842332;29;20038;-57
2022/08/16 06:14:06;;;;;;;31.50;8.98;;;;;;;16.22;72.99;100800.66;4842202;29;20387;-56
2022/08/16 06:16:33;;;;;;;35.20;8.32;;;;;;;16.01;73.99;100802.19;4842442;29;20175;-56
2022/08/16 06:18:59;;;;;;;28.38;8.50;;;;;;;15.84;74.35;100799.44;4842092;29;20109;-56
2022/08/16 06:21:26;;;;;;;37.85;8.45;;;;;;;15.84;74.35;100796.75;4842280;29;20134;-56
2022/08/16 06:23:52;;;;;;;37.60;9.32;;;;;;;15.91;74.20;100802.00;4842345;29;20181;-56
2022/08/16 06:26:19;;;;;;;32.10;9.00;;;;;;;15.70;75.06;100802.66;4842250;29;20056;-56
2022/08/16 06:28:45;;;;;;;37.13;9.82;;;;;;;15.64;75.31;100803.63;4842020;29;20057;-56
2022/08/16 06:31:12;;;;;;;25.17;8.85;;;;;;;15.82;74.72;100804.28;4842804;29;20032;-56
2022/08/16 06:33:40;;;;;;;34.90;9.82;;;;;;;15.75;74.49;100800.06;4841976;29;20038;-57
2022/08/16 06:36:07;;;;;;;33.78;9.85;;;;;;;15.65;75.20;100805.25;4842008;29;20040;-56
2022/08/16 06:38:35;;;;;;;28.13;9.43;;;;;;;15.66;75.20;100796.13;4842042;29;20034;-57
2022/08/16 06:41:04;;;;;;;29.83;10.00;;;;;;;15.67;75.05;100803.97;4841993;29;20030;-56
2022/08/16 06:43:31;;;;;;;33.80;9.57;;;;;;;15.66;74.96;100796.94;4842009;29;20036;-57
2022/08/16 06:45:58;;;;;;;33.33;9.00;;;;;;;15.78;74.78;100791.50;4841871;29;20504;-57
2022/08/16 06:48:24;;;;;;;25.08;7.70;;;;;;;15.77;74.53;100792.56;4841836;29;20479;-57
2022/08/16 06:50:51;;;;;;;38.40;10.30;;;;;;;15.87;74.42;100791.91;4841941;29;20037;-56
2022/08/16 06:53:18;;;;;;;30.27;8.50;;;;;;;15.76;74.76;100796.31;4842039;29;20104;-56
2022/08/16 06:55:44;;;;;;;26.77;8.48;;;;;;;15.67;74.78;100789.66;4841893;29;20446;-56
2022/08/16 06:58:11;;;;;;;34.80;9.00;;;;;;;15.77;74.44;100793.38;4842109;29;20498;-56
2022/08/16 07:00:37;;;;;;;33.15;8.75;;;;;;;15.70;74.72;100786.47;4841921;29;20109;-56
2022/08/16 07:03:05;;;;;;;36.47;8.90;;;;;;;15.67;75.14;100793.19;4842206;29;20026;-57
2022/08/16 07:05:32;;;;;;;36.80;9.10;;;;;;;15.64;75.00;100795.53;4841722;29;20034;-56
2022/08/16 07:07:58;;;;;;;30.23;8.40;;;;;;;15.71;74.70;100788.09;4841730;29;20033;-57
2022/08/16 07:10:26;;;;;;;32.08;9.38;;;;;;;15.69;74.75;100790.25;4844910;29;20037;-57
2022/08/16 07:12:52;;;;;;;38.13;9.27;;;;;;;15.72;74.52;100792.47;4845571;29;20539;-56
2022/08/16 07:15:18;;;;;;;32.08;8.98;;;;;;;15.45;75.53;100798.38;4845392;29;20038;-56
2022/08/16 07:17:45;;;;;;;27.27;8.68;;;;;;;15.45;75.92;100798.38;4845401;29;20041;-56
2022/08/16 07:20:13;;;;;;;31.23;9.20;;;;;;;15.39;75.74;100790.44;4845167;29;20364;-56
2022/08/16 07:22:41;;;;;;;30.42;8.43;;;;;;;15.45;75.51;100792.19;4845288;29;20087;-56
2022/08/16 07:25:13;;;;;;;37.88;9.85;;;;;;;15.41;75.44;100788.31;4845181;29;20026;-56
2022/08/16 07:27:40;;;;;;;29.35;7.88;;;;;;;15.47;75.40;100790.88;4845234;29;20022;-56
2022/08/16 07:30:11;;;;;;;32.92;8.93;;;;;;;15.47;75.55;100798.97;4845126;29;20033;-56
2022/08/16 07:32:37;;;;;;;27.85;7.85;;;;;;;15.40;75.64;100795.59;4845226;29;20042;-57
2022/08/16 07:35:05;;;;;;;34.88;9.18;;;;;;;15.50;75.33;100794.97;4845044;29;20038;-56
2022/08/16 07:37:31;;;;;;;33.38;8.57;;;;;;;15.49;75.12;100794.16;4844940;29;20046;-56
2022/08/16 07:39:58;;;;;;;31.38;9.60;;;;;;;15.41;75.65;100801.81;4844954;29;20484;-56
2022/08/16 07:42:24;;;;;;;30.52;7.80;;;;;;;15.27;76.28;100801.25;4844841;29;20053;-56
2022/08/16 07:44:51;;;;;;;38.22;9.05;;;;;;;15.31;76.03;100794.31;4845027;29;20026;-56
2022/08/16 07:47:17;;;;;;;30.38;10.18;;;;;;;15.28;76.18;100795.63;4844746;29;20401;-56
2022/08/16 07:49:44;;;;;;;33.55;8.50;;;;;;;15.23;76.30;100792.00;4845079;29;20030;-56
2022/08/16 07:52:10;;;;;;;34.53;8.75;;;;;;;15.37;75.78;100785.25;4844952;29;20025;-56
2022/08/16 07:54:36;;;;;;;35.53;9.30;;;;;;;15.33;76.01;100786.81;4845054;29;20026;-56
2022/08/16 07:57:02;;;;;;;31.15;9.40;;;;;;;15.37;75.88;100787.97;4828979;29;20403;-56
2022/08/16 07:59:29;;;;;;;32.85;8.65;;;;;;;15.25;76.37;100789.88;4844818;29;20437;-56
2022/08/16 08:01:56;;;;;;;37.38;8.82;;;;;;;15.16;76.62;100788.63;4844547;29;20037;-56
2022/08/16 08:04:22;;;;;;;39.38;9.50;;;;;;;15.15;76.04;100782.38;4844349;29;20034;-57
2022/08/16 08:06:48;;;;;;;38.10;9.43;;;;;;;15.18;76.52;100786.50;4844612;29;20030;-56
2022/08/16 08:09:14;;;;;;;34.35;9.20;;;;;;;15.09;76.64;100787.91;4844481;29;20030;-56
2022/08/16 08:11:41;;;;;;;28.25;8.57;;;;;;;15.12;76.82;100787.44;4844341;29;20029;-56
2022/08/16 08:14:07;;;;;;;38.63;9.07;;;;;;;15.12;76.32;100790.97;4844286;29;20121;-56
2022/08/16 08:16:34;;;;;;;36.67;9.25;;;;;;;15.05;76.90;100785.72;4844361;29;20102;-56
2022/08/16 08:19:00;;;;;;;24.20;7.88;;;;;;;14.89;77.41;100789.13;4844062;29;20033;-56
2022/08/16 08:21:27;;;;;;;26.80;8.82;;;;;;;15.08;76.79;100789.78;4843944;29;20053;-56
2022/08/16 08:23:55;;;;;;;36.90;8.40;;;;;;;15.14;76.56;100790.72;4844123;29;20042;-56
2022/08/16 08:26:21;;;;;;;32.90;9.18;;;;;;;15.05;76.86;100791.09;4844063;29;20030;-56
2022/08/16 08:28:47;;;;;;;38.60;8.90;;;;;;;15.04;76.93;100786.72;4844690;29;20118;-57
2022/08/16 08:31:13;;;;;;;37.22;9.43;;;;;;;14.91;77.23;100794.25;4844892;29;20033;-56
2022/08/16 08:33:40;;;;;;;34.95;9.35;;;;;;;14.99;77.00;100793.88;4844787;29;20034;-56
2022/08/16 08:36:10;;;;;;;27.63;8.52;;;;;;;14.91;77.15;100796.97;4843913;29;20029;-56
2022/08/16 08:38:36;;;;;;;43.30;11.18;;;;;;;14.94;77.01;100783.03;4843970;29;20038;-56
2022/08/16 08:41:07;;;;;;;29.88;8.70;;;;;;;14.98;76.90;100784.16;4843789;29;20043;-56
2022/08/16 08:43:34;;;;;;;28.38;9.02;;;;;;;14.88;77.08;100790.19;4844015;29;20554;-56
2022/08/16 08:46:00;;;;;;;36.40;8.48;;;;;;;14.74;77.41;100781.50;4843596;29;20431;-56
2022/08/16 08:48:27;;;;;;;34.30;9.18;;;;;;;14.68;77.97;100779.75;4843794;29;20115;-56
2022/08/16 08:50:53;;;;;;;27.35;9.43;;;;;;;14.69;77.93;100780.56;4843698;29;20030;-56
2022/08/16 08:53:20;;;;;;;31.73;8.38;;;;;;;14.72;77.86;100777.41;4843815;29;20041;-56
2022/08/16 08:55:48;;;;;;;40.60;9.27;;;;;;;14.70;77.77;100772.25;4843482;29;20045;-56
2022/08/16 08:58:15;;;;;;;36.10;10.20;;;;;;;14.69;77.88;100767.09;4844027;29;20471;-56
2022/08/16 09:00:41;;;;;;;37.88;9.10;;;;;;;14.59;77.85;100769.56;4843753;29;20053;-56
2022/08/16 09:03:07;;;;;;;37.60;8.52;;;;;;;14.63;78.07;100765.34;4843820;29;20038;-56
2022/08/16 09:05:34;;;;;;;33.13;9.10;;;;;;;14.79;77.40;100764.63;4843497;29;20392;-56
2022/08/16 09:08:00;;;;;;;35.15;9.05;;;;;;;14.61;77.90;100767.47;4843511;29;20391;-56
2022/08/16 09:10:26;;;;;;;35.30;9.70;;;;;;;14.64;77.96;100766.97;4843444;29;20026;-56
2022/08/16 09:12:52;;;;;;;27.70;7.90;;;;;;;14.61;78.08;100762.88;4843324;29;20468;-56
2022/08/16 09:15:20;;;;;;;27.75;8.40;;;;;;;14.57;77.97;100766.28;4843171;29;20491;-56
2022/08/16 09:17:46;;;;;;;32.22;8.40;;;;;;;14.65;77.95;100760.53;4843621;29;20034;-56
2022/08/16 09:20:13;;;;;;;31.52;8.75;;;;;;;14.63;77.82;100765.34;4843417;29;20556;-56
2022/08/16 09:22:41;;;;;;;28.45;8.68;;;;;;;14.67;77.81;100767.34;4843064;29;20120;-56
2022/08/16 09:25:09;;;;;;;25.48;8.93;;;;;;;14.63;77.93;100766.16;4842959;29;20038;-57
2022/08/16 09:27:35;;;;;;;35.53;9.00;;;;;;;14.59;77.78;100759.59;4843258;29;20021;-56
2022/08/16 09:30:01;;;;;;;35.58;8.93;;;;;;;14.62;77.99;100763.72;4842883;29;20112;-56
2022/08/16 09:32:29;;;;;;;35.38;8.73;;;;;;;14.56;77.88;100759.25;4842260;29;20109;-57
2022/08/16 09:34:55;;;;;;;34.33;10.07;;;;;;;14.60;77.73;100763.91;4843059;29;20034;-57
2022/08/16 09:37:21;;;;;;;36.30;8.20;;;;;;;14.54;78.14;100762.16;4842882;29;20057;-56
2022/08/16 09:39:48;;;;;;;39.10;8.73;;;;;;;14.68;77.39;100768.97;4842989;29;20375;-56
2022/08/16 09:42:14;;;;;;;34.10;7.93;;;;;;;14.64;77.32;100761.59;4842728;29;20094;-56
2022/08/16 09:44:42;;;;;;;42.10;9.15;;;;;;;14.61;77.86;100762.88;4842654;29;20034;-56
2022/08/16 09:47:08;;;;;;;33.58;9.23;;;;;;;14.50;77.78;100761.84;4842860;29;20050;-57
2022/08/16 09:49:35;;;;;;;28.90;8.70;;;;;;;14.60;77.56;100765.78;4842715;29;20026;-56
2022/08/16 09:52:01;;;;;;;29.65;9.27;;;;;;;14.55;77.95;100763.84;4842639;29;20034;-56
2022/08/16 09:54:27;;;;;;;37.22;9.10;;;;;;;14.59;77.52;100759.59;4842729;29;20109;-57
2022/08/16 09:56:54;;;;;;;28.73;7.72;;;;;;;14.57;77.34;100759.03;4842624;29;20038;-56
2022/08/16 09:59:22;;;;;;;29.75;8.50;;;;;;;14.64;77.06;100764.28;4842550;29;20030;-56
2022/08/16 10:01:49;;;;;;;34.05;8.93;;;;;;;14.51;77.09;100762.66;4842654;29;20476;-57
2022/08/16 10:04:16;;;;;;;30.38;7.88;;;;;;;14.59;77.41;100764.16;4842878;29;20038;-57
2022/08/16 10:06:44;;;;;;;35.80;7.68;;;;;;;14.60;77.06;100772.00;4842440;29;20510;-57
2022/08/16 10:09:13;;;;;;;35.85;9.23;;;;;;;14.53;77.61;100768.63;4842233;29;20489;-57
2022/08/16 10:14:30;;;;;;;34.97;8.02;;;;;;;14.63;77.28;100763.47;4842790;29;20041;-56
2022/08/16 10:17:04;;;;;;;30.75;8.30;;;;;;;14.61;77.31;100756.69;4842571;29;20048;-57
2022/08/16 10:19:31;;;;;;;32.83;8.25;;;;;;;14.46;78.08;100754.41;4842231;29;20070;-56
2022/08/16 10:21:57;;;;;;;33.53;9.48;;;;;;;14.38;78.43;100743.97;4842206;29;20075;-57
2022/08/16 10:24:23;;;;;;;30.27;8.85;;;;;;;14.47;77.91;100756.91;4842120;29;20030;-57
2022/08/16 10:26:51;;;;;;;40.35;7.80;;;;;;;14.49;77.86;100751.28;4842216;29;20451;-56
2022/08/16 10:29:18;;;;;;;42.05;9.23;;;;;;;14.18;79.54;100758.59;4842421;29;20142;-57
2022/08/16 10:31:45;;;;;;;38.40;8.48;;;;;;;14.39;78.33;100751.03;4842322;29;20113;-56
2022/08/16 10:34:11;;;;;;;37.08;8.38;;;;;;;14.47;78.30;100756.09;4842168;29;20033;-56
2022/08/16 10:36:37;;;;;;;36.53;8.27;;;;;;;14.33;78.67;100751.97;4842655;29;20730;-56
2022/08/16 10:39:04;;;;;;;39.13;9.32;;;;;;;14.41;78.04;100747.03;4842260;29;20030;-56
2022/08/16 10:41:30;;;;;;;35.08;7.93;;;;;;;14.39;78.19;100759.09;4842071;29;20057;-56
2022/08/16 10:43:58;;;;;;;31.83;7.93;;;;;;;14.33;78.49;100766.25;4841494;29;20037;-57
2022/08/16 10:46:25;;;;;;;38.90;8.25;;;;;;;14.55;77.81;100758.44;4841812;29;20060;-56
2022/08/16 10:48:51;;;;;;;47.67;9.05;;;;;;;14.48;77.79;100757.72;4841544;29;20105;-55
2022/08/16 10:51:17;;;;;;;34.65;9.10;;;;;;;14.33;78.48;100760.84;4842043;29;20030;-55
2022/08/16 10:53:44;;;;;;;28.75;8.15;;;;;;;14.37;78.22;100759.31;4842006;29;20101;-56
2022/08/16 10:56:11;;;;;;;35.58;7.75;;;;;;;14.23;78.60;100764.13;4841879;29;20030;-54
2022/08/16 10:58:39;;;;;;;37.53;8.73;;;;;;;14.24;78.56;100757.69;4842607;29;20026;-56
2022/08/16 11:01:08;;;;;;;25.08;7.88;;;;;;;14.30;78.40;100753.22;4841949;29;20523;-56
2022/08/16 11:03:35;;;;;;;28.50;8.15;;;;;;;14.34;78.34;100762.50;4842049;29;20073;-55
2022/08/16 11:06:04;;;;;;;36.53;7.95;;;;;;;14.32;78.35;100759.19;4842155;29;20360;-55
2022/08/16 11:08:30;;;;;;;26.13;7.97;;;;;;;14.29;78.34;100759.69;4841924;29;20112;-56
2022/08/16 11:10:57;;;;;;;39.05;8.13;;;;;;;14.34;78.53;100762.50;4826076;29;20037;-56
2022/08/16 11:13:25;;;;;;;32.08;8.13;;;;;;;14.35;78.44;100758.75;4842507;29;20512;-56
2022/08/16 11:15:55;;;;;;;33.20;8.10;;;;;;;14.30;78.29;100755.94;4841742;29;20076;-56
2022/08/16 11:18:22;;;;;;;31.63;8.00;;;;;;;14.28;78.51;100752.66;4841681;29;20026;-56
2022/08/16 11:20:48;;;;;;;30.88;8.02;;;;;;;14.33;78.42;100754.66;4841794;29;20030;-55